Time;durP1;ratioP1;P1;durP2;ratioP2;P2;SDS_P1;SDS_P2;PMS_P1;PMS_P2;Temp;Humidity;BMP_temperature;BMP_pressure;BME280_temperature;BME280_humidity;BME280_pressure;Samples;Min_cycle;Max_cycle;Signal;HPM_P1;HPM_P2
2023/01/05 00:02:11;;;;;;;1999.90;999.90;;;13.00;99.90;;;;;;5050841;28;20040;-73
2023/01/05 00:04:37;;;;;;;1999.90;999.90;;;13.00;99.90;;;;;;5050633;28;20088;-75
2023/01/05 00:07:02;;;;;;;1999.90;999.90;;;12.90;99.90;;;;;;5051453;28;20480;-73
2023/01/05 00:09:28;;;;;;;1999.90;999.90;;;12.90;99.90;;;;;;5051126;28;20036;-75
2023/01/05 00:23:04;;;;;;;1999.90;999.90;;;13.00;99.90;;;;;;5054808;28;20044;-75
2023/01/05 00:25:32;;;;;;;1999.90;999.90;;;13.00;99.90;;;;;;5050832;28;20036;-73
2023/01/05 00:27:59;;;;;;;1999.90;999.90;;;13.00;99.90;;;;;;5052684;28;20514;-73
2023/01/05 00:30:38;;;;;;;1999.90;999.90;;;13.00;99.90;;;;;;5054392;28;20036;-73
2023/01/05 00:33:06;;;;;;;1999.90;999.90;;;13.00;99.90;;;;;;5054768;28;20013;-73
2023/01/05 00:35:32;;;;;;;1999.90;999.90;;;13.10;99.90;;;;;;5054424;28;20029;-75
2023/01/05 00:37:57;;;;;;;1999.90;999.90;;;13.10;99.90;;;;;;5054420;28;20040;-73
2023/01/05 00:40:23;;;;;;;1999.90;999.90;;;13.00;99.90;;;;;;5054236;28;20059;-73
2023/01/05 00:42:48;;;;;;;1999.90;999.90;;;13.00;99.90;;;;;;5054321;28;20055;-73
2023/01/05 00:45:16;;;;;;;1999.90;999.90;;;12.90;99.90;;;;;;5054443;28;20028;-75
2023/01/05 00:47:42;;;;;;;1999.90;999.90;;;13.00;99.90;;;;;;5054184;28;20025;-75
2023/01/05 00:50:09;;;;;;;1999.90;999.90;;;12.90;99.90;;;;;;5054163;28;20079;-73
2023/01/05 00:52:35;;;;;;;1999.90;999.90;;;12.90;99.90;;;;;;5054475;28;20067;-72
2023/01/05 00:55:01;;;;;;;1999.90;999.90;;;12.90;99.90;;;;;;5054470;28;20075;-75
2023/01/05 00:57:26;;;;;;;1999.90;999.90;;;12.80;99.90;;;;;;5054073;28;20443;-73
2023/01/05 00:59:52;;;;;;;1999.90;999.90;;;12.80;99.90;;;;;;5053841;28;20029;-75
2023/01/05 01:02:18;;;;;;;1999.90;999.90;;;12.70;99.90;;;;;;5048900;28;20036;-75
2023/01/05 01:04:43;;;;;;;1999.90;999.90;;;12.70;99.90;;;;;;5033917;28;20425;-73
2023/01/05 01:07:09;;;;;;;1999.90;999.90;;;12.70;99.90;;;;;;5034152;28;20029;-73
2023/01/05 01:09:36;;;;;;;1999.90;999.90;;;12.70;99.90;;;;;;5033818;28;20029;-73
2023/01/05 01:12:02;;;;;;;1999.90;999.90;;;12.70;99.90;;;;;;5033655;28;20025;-73
2023/01/05 01:14:28;;;;;;;1999.90;999.90;;;12.70;99.90;;;;;;5033530;28;20029;-75
2023/01/05 01:16:53;;;;;;;1999.90;999.90;;;12.70;99.90;;;;;;5032916;28;20025;-73
2023/01/05 01:19:22;;;;;;;1999.90;999.90;;;12.80;99.90;;;;;;5032601;28;20040;-75
2023/01/05 01:21:48;;;;;;;1999.90;999.90;;;12.80;99.90;;;;;;5036966;28;20459;-73
2023/01/05 01:24:22;;;;;;;1999.90;999.90;;;12.80;99.90;;;;;;5052970;28;20025;-73
2023/01/05 01:26:47;;;;;;;1999.90;999.90;;;12.80;99.90;;;;;;5050763;28;20021;-72
2023/01/05 01:29:16;;;;;;;1999.90;999.90;;;12.80;99.90;;;;;;5050450;28;20555;-73
2023/01/05 01:31:42;;;;;;;1999.90;999.90;;;12.80;99.90;;;;;;5053469;28;20594;-72
2023/01/05 01:34:07;;;;;;;1999.90;999.90;;;12.80;99.90;;;;;;5053431;28;20033;-75
2023/01/05 01:36:33;;;;;;;1999.90;999.90;;;12.80;99.90;;;;;;5053101;28;20472;-75
2023/01/05 01:38:59;;;;;;;1999.90;999.90;;;12.80;99.90;;;;;;5053376;28;20096;-75
2023/01/05 01:41:25;;;;;;;1999.90;999.90;;;12.70;99.90;;;;;;5052943;28;20021;-75
2023/01/05 01:43:55;;;;;;;1999.90;999.90;;;12.70;99.90;;;;;;5053081;28;20036;-76
2023/01/05 01:46:22;;;;;;;1999.90;999.90;;;12.70;99.90;;;;;;5051841;28;20373;-73
2023/01/05 01:48:52;;;;;;;1999.90;999.90;;;12.60;99.90;;;;;;5053144;28;20025;-73
2023/01/05 01:51:36;;;;;;;1999.90;999.90;;;12.60;99.90;;;;;;5053095;28;20025;-73
2023/01/05 01:54:03;;;;;;;;;;;12.50;99.90;;;;;;5053399;28;20621;-73
2023/01/05 01:56:35;;;;;;;1999.90;999.90;;;12.50;99.90;;;;;;5052743;28;19958;-75
2023/01/05 01:59:01;;;;;;;1999.90;999.90;;;12.40;99.90;;;;;;5053184;28;20446;-73
2023/01/05 02:01:27;;;;;;;1999.90;999.90;;;12.40;99.90;;;;;;5052823;28;20029;-75
2023/01/05 02:03:54;;;;;;;1999.90;999.90;;;12.40;99.90;;;;;;5051169;28;20102;-75
2023/01/05 02:06:19;;;;;;;1999.90;999.90;;;12.40;99.90;;;;;;5052581;28;20029;-72
2023/01/05 02:08:45;;;;;;;1999.90;999.90;;;12.40;99.90;;;;;;5052901;28;20029;-73
2023/01/05 02:11:17;;;;;;;1999.90;999.90;;;12.30;99.90;;;;;;5051367;28;20025;-72
2023/01/05 02:14:04;;;;;;;1999.90;999.90;;;12.20;99.90;;;;;;5052375;28;20491;-73
2023/01/05 02:17:16;;;;;;;1999.90;999.90;;;12.20;99.90;;;;;;5052535;28;20431;-73
2023/01/05 02:20:03;;;;;;;1999.90;999.90;;;12.10;99.90;;;;;;5030268;28;20112;-73
2023/01/05 02:22:53;;;;;;;1999.90;999.90;;;12.20;99.90;;;;;;5030023;28;20148;-73
2023/01/05 02:25:48;;;;;;;1999.90;999.90;;;12.20;99.90;;;;;;5028408;28;20072;-75
2023/01/05 02:28:40;;;;;;;1999.90;999.90;;;12.20;99.90;;;;;;4992625;28;20124;-75
2023/01/05 02:31:13;;;;;;;1999.90;999.90;;;12.20;99.90;;;;;;5010607;28;20080;-75
2023/01/05 02:33:54;;;;;;;;;;;12.20;99.90;;;;;;5010882;28;20030;-75
2023/01/05 02:36:26;;;;;;;1999.90;999.90;;;12.20;99.90;;;;;;5010473;28;20011;-75
2023/01/05 02:39:02;;;;;;;1999.90;999.90;;;12.10;99.90;;;;;;5010250;28;20423;-76
2023/01/05 02:41:44;;;;;;;1999.90;999.90;;;12.10;99.90;;;;;;5010111;28;20613;-73
2023/01/05 02:44:15;;;;;;;1999.90;999.90;;;12.10;99.90;;;;;;5010378;28;20065;-75
2023/01/05 02:46:41;;;;;;;1999.90;999.90;;;12.10;99.90;;;;;;5044508;28;20021;-75
2023/01/05 02:49:07;;;;;;;1999.90;999.90;;;12.10;99.90;;;;;;5049797;28;20025;-73
2023/01/05 02:51:40;;;;;;;1999.90;999.90;;;12.00;99.90;;;;;;5050457;28;20104;-73
2023/01/05 02:54:11;;;;;;;1999.90;999.90;;;12.00;99.90;;;;;;5051029;28;20391;-73
2023/01/05 02:56:43;;;;;;;1999.90;999.90;;;12.00;99.90;;;;;;5050796;28;20396;-73
2023/01/05 02:59:14;;;;;;;1999.90;999.90;;;12.00;99.90;;;;;;5052062;28;20484;-75
2023/01/05 03:01:47;;;;;;;1999.90;999.90;;;12.00;99.90;;;;;;5051704;28;20096;-75
2023/01/05 03:04:21;;;;;;;1999.90;999.90;;;11.90;99.90;;;;;;5051688;28;20051;-75
2023/01/05 03:06:57;;;;;;;1999.90;999.90;;;11.90;99.90;;;;;;5051964;28;20068;-75
2023/01/05 03:09:27;;;;;;;1999.90;999.90;;;11.80;99.90;;;;;;5051854;28;20024;-72
2023/01/05 03:14:52;;;;;;;1999.90;999.90;;;11.80;99.90;;;;;;5052253;28;20036;-73
2023/01/05 03:17:26;;;;;;;1999.90;999.90;;;11.80;99.90;;;;;;5052133;28;20060;-73
2023/01/05 03:19:55;;;;;;;1999.90;999.90;;;11.80;99.90;;;;;;5051145;28;20029;-73
2023/01/05 03:37:03;;;;;;;1999.90;999.90;;;11.80;99.90;;;;;;5051766;28;20028;-75
2023/01/05 03:39:30;;;;;;;1999.90;999.90;;;11.80;99.90;;;;;;5051759;28;20026;-73
2023/01/05 03:41:56;;;;;;;1999.90;999.90;;;11.80;99.90;;;;;;5051037;28;20028;-72
2023/01/05 03:44:22;;;;;;;1999.90;999.90;;;11.80;99.90;;;;;;5051320;28;20029;-72
2023/01/05 03:46:48;;;;;;;1999.90;999.90;;;11.80;99.90;;;;;;5051446;28;20047;-75
2023/01/05 03:49:16;;;;;;;1999.90;999.90;;;11.80;99.90;;;;;;5051527;28;20029;-75
2023/01/05 03:51:42;;;;;;;1999.90;999.90;;;11.80;99.90;;;;;;5052140;28;20024;-75
2023/01/05 03:54:08;;;;;;;1999.90;999.90;;;11.80;99.90;;;;;;5055277;28;20395;-75
2023/01/05 03:56:34;;;;;;;1999.90;999.90;;;11.80;99.90;;;;;;5055113;28;20614;-72
2023/01/05 03:58:59;;;;;;;1999.90;999.90;;;11.70;99.90;;;;;;5055388;28;20029;-75
2023/01/05 04:01:25;;;;;;;1999.90;999.90;;;11.70;99.90;;;;;;5054926;28;20045;-72
2023/01/05 04:03:50;;;;;;;1999.90;999.90;;;11.70;99.90;;;;;;5055198;28;20068;-75
2023/01/05 04:06:16;;;;;;;1999.90;999.90;;;11.70;99.90;;;;;;5054820;28;20571;-73
2023/01/05 04:08:42;;;;;;;1999.90;999.90;;;11.60;99.90;;;;;;5055181;28;20078;-75
2023/01/05 04:11:13;;;;;;;1999.90;999.90;;;11.70;99.90;;;;;;5054873;28;20400;-73
2023/01/05 04:13:39;;;;;;;1999.90;999.90;;;11.70;99.90;;;;;;5054771;28;20036;-72
2023/01/05 04:16:05;;;;;;;1999.90;999.90;;;11.60;99.90;;;;;;5053966;28;20433;-75
2023/01/05 04:18:30;;;;;;;1999.90;999.90;;;11.70;99.90;;;;;;5054305;28;20108;-73
2023/01/05 04:20:56;;;;;;;1999.90;999.90;;;11.70;99.90;;;;;;5054506;28;20025;-72
2023/01/05 04:23:21;;;;;;;1999.90;999.90;;;11.70;99.90;;;;;;5054528;28;20032;-73
2023/01/05 04:25:47;;;;;;;1999.90;999.90;;;11.70;99.90;;;;;;5049202;28;20040;-75
2023/01/05 04:28:13;;;;;;;1999.90;999.90;;;11.80;99.90;;;;;;5054378;28;20029;-75
2023/01/05 04:30:38;;;;;;;1999.90;999.90;;;11.80;99.90;;;;;;5054306;28;20047;-75
2023/01/05 04:33:04;;;;;;;1999.90;999.90;;;11.80;99.90;;;;;;5054734;28;20100;-72
2023/01/05 04:35:29;;;;;;;1999.90;999.90;;;11.80;99.90;;;;;;5054705;28;20029;-75
2023/01/05 04:37:55;;;;;;;1999.90;999.90;;;11.80;99.90;;;;;;5054561;28;20032;-73
2023/01/05 04:40:21;;;;;;;1999.90;999.90;;;11.80;99.90;;;;;;5054274;28;20033;-75
2023/01/05 04:42:46;;;;;;;1999.90;999.90;;;11.90;99.90;;;;;;5053601;28;20029;-75
2023/01/05 04:45:12;;;;;;;1999.90;999.90;;;11.90;99.90;;;;;;5054345;28;20123;-75
2023/01/05 04:47:38;;;;;;;1999.90;999.90;;;11.90;99.90;;;;;;5054466;28;20480;-73
2023/01/05 04:50:04;;;;;;;1999.90;999.90;;;12.00;99.90;;;;;;5054675;28;20474;-72
2023/01/05 04:52:29;;;;;;;1999.90;999.90;;;12.00;99.90;;;;;;5054148;28;20083;-72
2023/01/05 04:54:55;;;;;;;1999.90;999.90;;;12.00;99.90;;;;;;5053018;28;20021;-75
2023/01/05 04:57:21;;;;;;;1999.90;999.90;;;12.10;99.90;;;;;;5054051;28;20068;-72
2023/01/05 04:59:46;;;;;;;1999.90;999.90;;;12.10;99.90;;;;;;5053840;28;20484;-72
2023/01/05 05:02:12;;;;;;;1999.90;999.90;;;12.10;99.90;;;;;;5053234;28;20032;-73
2023/01/05 05:04:37;;;;;;;1999.90;999.90;;;12.10;99.90;;;;;;5053748;28;20049;-75
2023/01/05 05:07:03;;;;;;;1999.90;999.90;;;12.10;99.90;;;;;;5048765;28;20064;-75
2023/01/05 05:09:28;;;;;;;1999.90;999.90;;;12.10;99.90;;;;;;5053786;28;20067;-75
2023/01/05 05:11:54;;;;;;;1999.90;999.90;;;12.10;99.90;;;;;;5053625;28;20067;-75
2023/01/05 05:14:20;;;;;;;1999.90;999.90;;;12.00;99.90;;;;;;5053518;28;20427;-72
2023/01/05 05:16:45;;;;;;;1999.90;999.90;;;12.00;99.90;;;;;;5053837;28;20013;-72
2023/01/05 05:19:11;;;;;;;1999.90;999.90;;;11.90;99.90;;;;;;5053295;28;20032;-75
2023/01/05 05:21:36;;;;;;;1999.90;999.90;;;11.80;99.90;;;;;;5052212;28;20531;-72
2023/01/05 05:24:02;;;;;;;1999.90;999.90;;;11.70;99.90;;;;;;5053299;28;20029;-75
2023/01/05 05:26:28;;;;;;;1999.90;999.90;;;11.60;99.90;;;;;;5050024;28;20082;-72
2023/01/05 05:28:53;;;;;;;1999.90;999.90;;;11.40;99.90;;;;;;5053580;28;20025;-72
2023/01/05 05:31:19;;;;;;;1999.90;999.90;;;11.30;99.90;;;;;;5053522;28;20465;-72
2023/01/05 05:33:45;;;;;;;1999.90;999.90;;;11.20;99.90;;;;;;5053270;28;20037;-75
2023/01/05 05:36:10;;;;;;;1999.90;999.90;;;11.20;99.90;;;;;;5051923;28;20544;-75
2023/01/05 05:38:36;;;;;;;1999.90;999.90;;;11.20;99.90;;;;;;5053278;28;20021;-75
2023/01/05 05:41:01;;;;;;;1999.90;999.90;;;11.20;99.90;;;;;;5053226;28;20047;-72
2023/01/05 05:43:27;;;;;;;1999.90;999.90;;;11.20;99.90;;;;;;5053013;28;20028;-72
2023/01/05 05:45:52;;;;;;;1999.90;999.90;;;11.20;99.90;;;;;;5052892;28;20507;-75
2023/01/05 05:48:18;;;;;;;1999.90;999.90;;;11.30;99.90;;;;;;5053101;28;20033;-72
2023/01/05 05:50:44;;;;;;;1999.90;999.90;;;11.40;99.90;;;;;;5052893;28;20427;-72
2023/01/05 05:53:10;;;;;;;1999.90;999.90;;;11.50;99.90;;;;;;5052829;28;20116;-75
2023/01/05 05:55:35;;;;;;;1999.90;999.90;;;11.70;99.90;;;;;;5053022;28;20075;-72
2023/01/05 05:58:01;;;;;;;1999.90;999.90;;;11.80;99.90;;;;;;5052383;28;20112;-75
2023/01/05 06:00:26;;;;;;;1999.90;999.90;;;11.80;99.90;;;;;;5052412;28;20384;-75
2023/01/05 06:02:52;;;;;;;1999.90;999.90;;;11.90;99.90;;;;;;5052918;28;20041;-75
2023/01/05 06:05:17;;;;;;;1999.90;999.90;;;11.80;99.90;;;;;;5052815;28;20492;-74
2023/01/05 06:07:43;;;;;;;1999.90;999.90;;;11.90;99.90;;;;;;5052677;28;20075;-75
2023/01/05 06:10:09;;;;;;;1999.90;999.90;;;11.90;99.90;;;;;;5052548;28;20527;-75
2023/01/05 06:12:35;;;;;;;1999.90;999.90;;;11.90;99.90;;;;;;5051971;28;20055;-74
2023/01/05 06:15:01;;;;;;;1999.90;999.90;;;11.90;99.90;;;;;;5051973;28;20056;-73
2023/01/05 06:17:26;;;;;;;1999.90;999.90;;;11.90;99.90;;;;;;5052661;28;20421;-74
2023/01/05 06:19:52;;;;;;;1999.90;999.90;;;11.90;99.90;;;;;;5051839;28;20484;-75
2023/01/05 06:22:17;;;;;;;1999.90;999.90;;;12.00;99.90;;;;;;5051985;28;20021;-74
2023/01/05 06:24:43;;;;;;;1999.90;999.90;;;12.00;99.90;;;;;;5052104;28;20522;-74
2023/01/05 06:27:09;;;;;;;1999.90;999.90;;;12.10;99.90;;;;;;5052016;28;20094;-74
2023/01/05 06:29:35;;;;;;;1999.90;999.90;;;12.10;99.90;;;;;;5052602;28;20455;-72
2023/01/05 06:32:01;;;;;;;1999.90;999.90;;;12.20;99.90;;;;;;5052343;28;20052;-72
2023/01/05 06:34:26;;;;;;;1999.90;999.90;;;12.20;99.90;;;;;;5052335;28;20472;-72
2023/01/05 06:36:52;;;;;;;1999.90;999.90;;;12.20;99.90;;;;;;5036617;28;20023;-74
2023/01/05 06:39:18;;;;;;;1999.90;999.90;;;12.20;99.90;;;;;;5040969;28;20468;-74
2023/01/05 06:41:44;;;;;;;1999.90;999.90;;;12.30;99.90;;;;;;5033922;28;20075;-72
2023/01/05 06:44:09;;;;;;;1999.90;999.90;;;12.30;99.90;;;;;;5050014;28;20029;-72
2023/01/05 06:46:35;;;;;;;1999.90;999.90;;;12.30;99.90;;;;;;5050559;28;20377;-72
2023/01/05 06:49:00;;;;;;;1999.90;999.90;;;12.30;99.90;;;;;;5051400;28;20025;-73
2023/01/05 06:51:26;;;;;;;1999.90;999.90;;;12.30;99.90;;;;;;5051533;28;20025;-75
2023/01/05 06:53:52;;;;;;;1999.90;999.90;;;12.20;99.90;;;;;;5051253;28;20090;-75
2023/01/05 06:56:17;;;;;;;1999.90;999.90;;;12.10;99.90;;;;;;5045492;28;20111;-75
2023/01/05 06:58:43;;;;;;;1999.90;999.90;;;12.10;99.90;;;;;;5049399;28;20028;-72
2023/01/05 07:01:08;;;;;;;1999.90;999.90;;;12.10;99.90;;;;;;5050768;28;20021;-72
2023/01/05 07:03:34;;;;;;;1999.90;999.90;;;12.10;99.90;;;;;;5051505;28;20392;-75
2023/01/05 07:06:00;;;;;;;1999.90;999.90;;;12.10;99.90;;;;;;5045857;28;20037;-72
2023/01/05 07:08:25;;;;;;;1999.90;999.90;;;12.10;99.90;;;;;;5046845;28;20029;-72
2023/01/05 07:10:51;;;;;;;1999.90;999.90;;;12.10;99.90;;;;;;5047617;28;20025;-73
2023/01/05 07:13:16;;;;;;;1999.90;999.90;;;12.20;99.90;;;;;;5049077;28;20015;-73
2023/01/05 07:15:42;;;;;;;1999.90;999.90;;;12.20;99.90;;;;;;5049602;28;20040;-73
2023/01/05 07:18:08;;;;;;;1999.90;999.90;;;12.20;99.90;;;;;;5048051;28;20028;-72
2023/01/05 07:20:33;;;;;;;1999.90;999.90;;;12.20;99.90;;;;;;5047217;28;20036;-75
2023/01/05 07:22:59;;;;;;;1999.90;999.90;;;12.30;99.90;;;;;;5049329;28;20033;-72
2023/01/05 07:25:30;;;;;;;1999.90;999.90;;;12.30;99.90;;;;;;5056804;28;20032;-74
2023/01/05 07:27:56;;;;;;;1999.90;999.90;;;12.40;99.90;;;;;;5050225;28;20035;-73
2023/01/05 07:30:22;;;;;;;1999.90;999.90;;;12.40;99.90;;;;;;5051121;28;20049;-75
2023/01/05 07:32:47;;;;;;;1999.90;999.90;;;12.40;99.90;;;;;;5053176;28;20060;-75
2023/01/05 07:35:13;;;;;;;1999.90;999.90;;;12.30;99.90;;;;;;5068652;28;20462;-75
2023/01/05 07:37:38;;;;;;;1999.90;999.90;;;12.20;99.90;;;;;;5068398;28;20032;-73
2023/01/05 07:40:05;;;;;;;1999.90;999.90;;;12.20;99.90;;;;;;5050213;28;20551;-73
2023/01/05 07:42:31;;;;;;;1999.90;999.90;;;12.10;99.90;;;;;;5045351;28;20035;-75
2023/01/05 07:44:57;;;;;;;1999.90;999.90;;;12.10;99.90;;;;;;5061859;28;20074;-75
2023/01/05 07:47:22;;;;;;;1999.90;999.90;;;12.10;99.90;;;;;;5050993;28;20115;-72
2023/01/05 07:49:48;;;;;;;1999.90;999.90;;;12.10;99.90;;;;;;5052949;28;20033;-72
2023/01/05 07:52:13;;;;;;;1999.90;999.90;;;12.10;99.90;;;;;;5049895;28;20029;-72
2023/01/05 07:54:39;;;;;;;1999.90;999.90;;;12.10;99.90;;;;;;5050393;28;20536;-72
2023/01/05 07:57:05;;;;;;;1999.90;999.90;;;12.10;99.90;;;;;;5051869;28;20095;-74
2023/01/05 07:59:30;;;;;;;1999.90;999.90;;;12.10;99.90;;;;;;5052301;28;20058;-72
2023/01/05 08:01:57;;;;;;;1999.90;999.90;;;12.10;99.90;;;;;;5047106;28;20071;-72
2023/01/05 08:04:22;;;;;;;1999.90;999.90;;;12.00;99.90;;;;;;5051222;28;20091;-72
2023/01/05 08:06:48;;;;;;;1999.90;999.90;;;12.00;99.90;;;;;;5052379;28;20036;-72
2023/01/05 08:11:58;;;;;;;1999.90;999.90;;;12.00;99.90;;;;;;5049320;28;20166;-74
2023/01/05 08:14:24;;;;;;;1999.90;999.90;;;12.10;99.90;;;;;;5053201;28;20147;-74
2023/01/05 08:16:50;;;;;;;1999.90;999.90;;;12.10;99.90;;;;;;5048049;28;20028;-72
2023/01/05 08:19:15;;;;;;;1999.90;999.90;;;12.20;99.90;;;;;;5050682;28;20029;-72
2023/01/05 08:21:41;;;;;;;1999.90;999.90;;;12.20;99.90;;;;;;5051099;28;20025;-72
2023/01/05 08:24:07;;;;;;;1999.90;999.90;;;12.20;99.90;;;;;;5050155;28;20440;-74
2023/01/05 08:26:32;;;;;;;1999.90;999.90;;;12.30;99.90;;;;;;5047739;28;20033;-74
2023/01/05 08:28:58;;;;;;;1999.90;999.90;;;12.20;99.90;;;;;;5050441;28;20460;-74
2023/01/05 08:31:29;;;;;;;1999.90;999.90;;;12.30;99.90;;;;;;5052213;28;20025;-73
2023/01/05 08:33:57;;;;;;;1999.90;999.90;;;12.30;99.90;;;;;;5051102;28;20025;-74
2023/01/05 08:36:23;;;;;;;1999.90;999.90;;;12.40;99.90;;;;;;5050376;28;20036;-74
2023/01/05 08:38:54;;;;;;;1999.90;999.90;;;12.30;99.90;;;;;;5050183;28;20032;-74
2023/01/05 08:41:27;;;;;;;1999.90;999.90;;;12.30;99.90;;;;;;5042938;28;20127;-74
2023/01/05 08:43:54;;;;;;;1999.90;999.90;;;12.30;99.90;;;;;;5051110;28;20556;-72
2023/01/05 08:46:22;;;;;;;1999.90;999.90;;;12.30;99.90;;;;;;5049350;28;20033;-74
2023/01/05 08:48:49;;;;;;;1999.90;999.90;;;12.40;99.90;;;;;;5049082;28;20283;-74
2023/01/05 08:51:15;;;;;;;1999.90;999.90;;;12.30;99.90;;;;;;5051608;28;20554;-74
2023/01/05 08:53:41;;;;;;;1999.90;999.90;;;12.40;99.90;;;;;;5047992;28;20041;-72
2023/01/05 08:56:07;;;;;;;1999.90;999.90;;;12.40;99.90;;;;;;5047844;28;20021;-71
2023/01/05 08:58:33;;;;;;;1999.90;999.90;;;12.40;99.90;;;;;;5044614;28;20041;-72
2023/01/05 09:00:59;;;;;;;1999.90;999.90;;;12.40;99.90;;;;;;5043229;28;20033;-74
2023/01/05 09:03:24;;;;;;;1999.90;999.90;;;12.50;99.90;;;;;;5054808;28;20104;-74
2023/01/05 09:05:53;;;;;;;1999.90;999.90;;;12.60;99.90;;;;;;5048154;28;20041;-74
2023/01/05 09:08:19;;;;;;;1999.90;999.90;;;12.60;99.90;;;;;;5047026;28;20029;-72
2023/01/05 09:10:45;;;;;;;1999.90;999.90;;;12.70;99.90;;;;;;5048792;28;20503;-72
2023/01/05 09:13:10;;;;;;;1999.90;999.90;;;12.80;99.90;;;;;;5048809;28;20433;-72
2023/01/05 09:15:36;;;;;;;1999.90;999.90;;;12.80;99.90;;;;;;5045818;28;20029;-72
2023/01/05 09:18:02;;;;;;;1999.90;999.90;;;12.80;99.90;;;;;;5050906;28;20484;-74
2023/01/05 09:20:27;;;;;;;1999.90;999.90;;;12.80;99.90;;;;;;5058642;28;20439;-73
2023/01/05 09:22:54;;;;;;;1999.90;999.90;;;12.80;99.90;;;;;;5048863;28;20029;-72
2023/01/05 09:25:19;;;;;;;1999.90;999.90;;;12.80;99.90;;;;;;5048561;28;20364;-74
2023/01/05 09:27:45;;;;;;;1999.90;999.90;;;12.80;99.90;;;;;;5046541;28;20029;-74
2023/01/05 09:30:11;;;;;;;1999.90;999.90;;;12.80;99.90;;;;;;5039945;28;20024;-71
2023/01/05 09:32:37;;;;;;;1999.90;999.90;;;12.80;99.90;;;;;;5049463;28;20378;-74
2023/01/05 09:35:03;;;;;;;1999.90;999.90;;;12.90;99.90;;;;;;5042863;28;20029;-72
2023/01/05 09:37:28;;;;;;;1999.90;999.90;;;13.00;99.90;;;;;;5036768;28;20069;-72
2023/01/05 09:39:54;;;;;;;1999.90;999.90;;;13.10;99.90;;;;;;5043232;28;20486;-73
2023/01/05 09:42:23;;;;;;;1999.90;999.90;;;13.20;99.90;;;;;;5039950;28;20032;-74
2023/01/05 09:44:55;;;;;;;1999.90;999.90;;;13.20;99.90;;;;;;5046480;28;20028;-72
2023/01/05 09:47:45;;;;;;;1999.90;999.90;;;13.30;99.90;;;;;;5039093;28;20036;-72
2023/01/05 09:50:23;;;;;;;1999.90;999.90;;;13.30;99.90;;;;;;5039613;28;20109;-74
2023/01/05 09:52:52;;;;;;;1999.90;999.90;;;13.50;99.90;;;;;;5041684;28;20056;-74
2023/01/05 09:55:20;;;;;;;1999.90;999.90;;;13.60;99.90;;;;;;5035625;28;20033;-74
2023/01/05 09:57:57;;;;;;;1999.90;999.90;;;13.70;99.90;;;;;;5033582;28;20041;-72
2023/01/05 10:00:24;;;;;;;1999.90;999.90;;;13.70;99.90;;;;;;5035096;28;20063;-72
2023/01/05 10:03:00;;;;;;;1999.90;999.90;;;13.80;99.90;;;;;;5039540;28;20037;-72
2023/01/05 10:05:27;;;;;;;1999.90;999.90;;;13.80;99.90;;;;;;5046170;28;20037;-75
2023/01/05 10:08:00;;;;;;;1999.90;999.90;;;13.90;99.90;;;;;;5044165;28;20548;-73
2023/01/05 10:10:31;;;;;;;;;;;13.70;99.90;;;;;;5041257;28;20104;-73
2023/01/05 10:13:02;;;;;;;1999.90;999.90;;;13.70;99.90;;;;;;5038405;28;19913;-72
2023/01/05 10:15:51;;;;;;;1999.90;999.90;;;13.80;99.90;;;;;;5036685;28;20044;-73
2023/01/05 10:18:22;;;;;;;1999.90;999.90;;;14.00;99.90;;;;;;5047101;28;20028;-72
2023/01/05 10:21:11;;;;;;;1999.90;999.90;;;13.90;99.90;;;;;;5038763;28;20032;-72
2023/01/05 10:24:15;;;;;;;1999.90;999.90;;;14.00;99.90;;;;;;5035676;28;20532;-72
2023/01/05 10:27:07;;;;;;;1999.90;999.90;;;14.10;99.90;;;;;;5043774;28;20182;-73
2023/01/05 10:29:46;;;;;;;1999.90;999.90;;;14.20;99.90;;;;;;5030819;28;20526;-74
2023/01/05 10:32:27;;;;;;;1999.90;999.90;;;14.20;99.90;;;;;;5043429;28;20111;-73
2023/01/05 10:35:01;;;;;;;1999.90;999.90;;;14.30;99.90;;;;;;5038376;28;20112;-73
2023/01/05 10:37:40;;;;;;;1999.90;999.90;;;14.30;99.90;;;;;;5036695;28;20056;-74
2023/01/05 10:40:32;;;;;;;1999.90;999.90;;;14.50;99.90;;;;;;5035287;28;20041;-73
2023/01/05 10:43:22;;;;;;;1999.90;999.90;;;14.60;99.90;;;;;;5035528;28;20056;-73
2023/01/05 10:45:48;;;;;;;1999.90;999.90;;;14.40;99.90;;;;;;5033451;28;20064;-74
2023/01/05 10:48:16;;;;;;;1999.90;999.90;;;14.60;99.90;;;;;;5040943;28;20488;-73
2023/01/05 10:50:45;;;;;;;1999.90;999.90;;;14.80;99.90;;;;;;5043129;28;20057;-73
2023/01/05 10:53:26;;;;;;;1999.90;999.90;;;14.90;99.90;;;;;;5035180;28;20049;-73
2023/01/05 10:56:05;;;;;;;1999.90;999.90;;;14.60;99.90;;;;;;5037591;28;20490;-73
2023/01/05 10:58:33;;;;;;;1999.90;999.90;;;14.50;99.90;;;;;;5029435;28;20061;-74
2023/01/05 11:01:02;;;;;;;1999.90;999.90;;;14.50;99.90;;;;;;5041600;28;20037;-74
2023/01/05 11:03:38;;;;;;;1999.90;999.90;;;14.50;99.90;;;;;;5036796;28;20025;-74
2023/01/05 11:06:04;;;;;;;1999.90;999.90;;;14.40;99.90;;;;;;5035842;28;20063;-73
2023/01/05 11:08:31;;;;;;;1999.90;999.90;;;14.40;99.90;;;;;;5041151;28;20033;-72
2023/01/05 11:11:06;;;;;;;1999.90;999.90;;;14.50;99.90;;;;;;5043517;28;20017;-73
2023/01/05 11:13:47;;;;;;;1999.90;999.90;;;14.50;99.90;;;;;;5039274;28;20021;-74
2023/01/05 11:16:31;;;;;;;1999.90;999.90;;;14.60;99.90;;;;;;5037225;28;20425;-74
2023/01/05 11:19:14;;;;;;;1999.90;999.90;;;14.30;99.90;;;;;;5041544;28;20419;-73
2023/01/05 11:21:44;;;;;;;1999.90;999.90;;;14.40;99.90;;;;;;5037791;28;20059;-74
2023/01/05 11:24:27;;;;;;;1999.90;999.90;;;14.20;99.90;;;;;;5037930;28;20499;-74
2023/01/05 11:26:58;;;;;;;1999.90;999.90;;;14.40;99.90;;;;;;5039841;28;20064;-74
2023/01/05 11:29:24;;;;;;;1999.90;999.90;;;14.50;99.90;;;;;;5039327;28;20033;-74
2023/01/05 11:32:09;;;;;;;1999.90;999.90;;;14.60;99.90;;;;;;5030863;28;20029;-74
2023/01/05 11:34:44;;;;;;;1999.90;999.90;;;14.60;99.90;;;;;;5039668;28;20053;-72
2023/01/05 11:37:25;;;;;;;1999.90;999.90;;;14.50;99.90;;;;;;5040607;28;20036;-74
2023/01/05 11:40:02;;;;;;;1999.90;999.90;;;14.50;99.90;;;;;;5048469;28;20048;-72
2023/01/05 11:42:33;;;;;;;1999.90;999.90;;;14.50;99.90;;;;;;5046727;28;20527;-73
2023/01/05 11:45:06;;;;;;;1999.90;999.90;;;14.60;99.90;;;;;;5053354;28;20029;-73
2023/01/05 11:47:38;;;;;;;1999.90;999.90;;;14.70;99.90;;;;;;5039940;28;20230;-73
2023/01/05 11:50:08;;;;;;;1999.90;999.90;;;14.90;99.90;;;;;;5042325;28;20025;-72
2023/01/05 11:52:45;;;;;;;1999.90;999.90;;;15.00;99.90;;;;;;5042951;28;20515;-74
2023/01/05 11:55:23;;;;;;;1999.90;999.90;;;15.10;99.90;;;;;;5045673;28;20111;-73
2023/01/05 11:57:50;;;;;;;1999.90;999.90;;;14.60;99.90;;;;;;5035707;28;20060;-72
2023/01/05 12:00:24;;;;;;;1999.90;999.90;;;14.50;99.90;;;;;;5040965;28;20108;-72
2023/01/05 12:03:09;;;;;;;1999.90;999.90;;;14.60;99.90;;;;;;5046506;28;20114;-73
2023/01/05 12:05:47;;;;;;;1999.90;999.90;;;14.60;99.90;;;;;;5045640;28;20049;-73
2023/01/05 12:08:39;;;;;;;1999.90;999.90;;;14.90;99.90;;;;;;5045741;28;20447;-71
2023/01/05 12:11:20;;;;;;;1999.90;999.90;;;15.10;99.90;;;;;;5036929;28;20389;-72
2023/01/05 12:13:52;;;;;;;1999.90;999.90;;;15.30;99.90;;;;;;5043235;28;20056;-72
2023/01/05 12:16:36;;;;;;;1999.90;999.90;;;15.20;99.90;;;;;;5042766;28;20508;-72
2023/01/05 12:19:27;;;;;;;1999.90;999.90;;;15.20;99.90;;;;;;5045110;28;20445;-73
2023/01/05 12:22:29;;;;;;;1999.90;999.90;;;14.90;99.90;;;;;;5046072;28;20443;-73
2023/01/05 12:24:58;;;;;;;1999.90;999.90;;;15.00;99.90;;;;;;5049402;28;20036;-71
2023/01/05 12:27:26;;;;;;;1999.90;999.90;;;14.90;99.90;;;;;;5052264;28;20021;-73
2023/01/05 12:30:02;;;;;;;1999.90;999.90;;;14.80;99.90;;;;;;5047241;28;20033;-73
2023/01/05 12:33:05;;;;;;;1999.90;999.90;;;14.90;99.90;;;;;;5049816;28;20393;-73
2023/01/05 12:36:04;;;;;;;1999.90;999.90;;;14.80;99.90;;;;;;5054974;28;20043;-72
2023/01/05 12:38:50;;;;;;;1999.90;999.90;;;14.50;99.90;;;;;;5052504;28;20029;-71
2023/01/05 12:41:53;;;;;;;1999.90;999.90;;;14.70;99.90;;;;;;5048941;28;20388;-73
2023/01/05 12:44:41;;;;;;;1999.90;999.90;;;14.90;99.90;;;;;;5051852;28;20036;-73
2023/01/05 12:47:18;;;;;;;1999.90;999.90;;;14.70;99.90;;;;;;5053771;28;20025;-70